createdAt,value
2019-02-14T00:00:15.263Z,10.60
2019-02-14T00:02:43.306Z,10.60
2019-02-14T00:05:16.421Z,10.60
2019-02-14T00:07:41.687Z,10.50
2019-02-14T00:10:10.299Z,10.50
2019-02-14T00:12:38.381Z,10.40
2019-02-14T00:15:07.375Z,10.40
2019-02-14T00:17:35.760Z,10.30
2019-02-14T00:20:04.785Z,10.30
2019-02-14T00:22:32.807Z,10.20
2019-02-14T00:25:01.187Z,10.30
2019-02-14T00:27:29.197Z,10.40
2019-02-14T00:29:57.611Z,10.50
2019-02-14T00:32:25.715Z,10.30
2019-02-14T00:35:13.260Z,10.30
2019-02-14T00:37:41.799Z,10.30
2019-02-14T00:40:10.182Z,10.20
2019-02-14T00:42:38.506Z,10.20
2019-02-14T00:45:06.807Z,10.20
2019-02-14T00:47:34.834Z,10.10
2019-02-14T00:50:02.971Z,10.10
2019-02-14T00:52:31.016Z,10.10
2019-02-14T00:54:59.087Z,10.10
2019-02-14T00:57:27.159Z,10.10
2019-02-14T00:59:55.150Z,10.10
2019-02-14T01:02:23.505Z,10.00
2019-02-14T01:04:51.508Z,10.00
2019-02-14T01:07:19.858Z,10.00
2019-02-14T01:09:47.885Z,9.90
2019-02-14T01:12:16.440Z,10.00
2019-02-14T01:14:44.467Z,10.00
2019-02-14T01:17:12.589Z,10.10
2019-02-14T01:19:40.579Z,10.00
2019-02-14T01:22:08.599Z,9.90
2019-02-14T01:24:36.806Z,9.90
2019-02-14T01:27:04.890Z,9.80
2019-02-14T01:29:32.894Z,9.80
2019-02-14T01:32:01.902Z,9.80
2019-02-14T01:34:30.139Z,9.90
2019-02-14T01:36:58.414Z,9.90
2019-02-14T01:39:26.412Z,9.80
2019-02-14T01:41:54.431Z,9.70
2019-02-14T01:44:22.432Z,9.70
2019-02-14T01:46:50.498Z,9.70
2019-02-14T01:49:18.540Z,9.70
2019-02-14T01:51:46.527Z,9.70
2019-02-14T01:54:14.782Z,9.60
2019-02-14T01:56:42.779Z,9.50
2019-02-14T01:59:10.815Z,9.50
2019-02-14T02:01:39.151Z,9.60
2019-02-14T02:04:07.603Z,9.60
2019-02-14T02:06:35.692Z,9.40
2019-02-14T02:09:06.446Z,9.30
2019-02-14T02:11:34.666Z,9.30
2019-02-14T02:14:03.131Z,9.30
2019-02-14T02:16:31.275Z,9.30
2019-02-14T02:18:59.335Z,9.30
2019-02-14T02:21:40.139Z,9.30
2019-02-14T02:24:08.680Z,9.30
2019-02-14T02:26:36.941Z,9.20
2019-02-14T02:29:05.241Z,9.20
2019-02-14T02:31:33.287Z,9.20
2019-02-14T02:34:01.346Z,9.20
2019-02-14T02:36:29.387Z,9.30
2019-02-14T02:38:57.796Z,9.40
2019-02-14T02:41:26.220Z,9.40
2019-02-14T02:43:54.560Z,9.30
2019-02-14T02:46:22.893Z,9.30
2019-02-14T02:48:50.955Z,9.20
2019-02-14T02:51:18.934Z,9.20
2019-02-14T02:53:47.000Z,9.20
2019-02-14T02:56:15.344Z,9.10
2019-02-14T02:58:43.703Z,9.20
2019-02-14T03:01:11.996Z,9.20
2019-02-14T03:03:40.421Z,9.20
2019-02-14T03:06:10.801Z,9.20
2019-02-14T03:08:38.841Z,9.20
2019-02-14T03:11:06.822Z,9.10
2019-02-14T03:13:34.846Z,9.00
2019-02-14T03:16:02.898Z,8.90
2019-02-14T03:18:31.252Z,8.90
2019-02-14T03:20:59.538Z,8.90
2019-02-14T03:23:27.880Z,8.90
2019-02-14T03:25:55.858Z,8.80
2019-02-14T03:28:24.128Z,8.80
2019-02-14T03:30:52.044Z,8.90
2019-02-14T03:33:20.108Z,8.90
2019-02-14T03:35:48.349Z,8.90
2019-02-14T03:38:19.606Z,8.90
2019-02-14T03:40:47.811Z,8.90
2019-02-14T03:43:16.167Z,8.90
2019-02-14T03:45:44.227Z,8.80
2019-02-14T03:48:12.217Z,8.80
2019-02-14T03:50:40.823Z,8.70
2019-02-14T03:53:09.271Z,8.70
2019-02-14T03:55:37.615Z,8.70
2019-02-14T03:58:05.635Z,8.80
2019-02-14T04:00:33.942Z,8.80
2019-02-14T04:03:02.393Z,8.80
2019-02-14T04:05:31.032Z,8.70
2019-02-14T04:07:59.054Z,8.80
2019-02-14T04:10:27.120Z,8.70
2019-02-14T04:12:55.191Z,8.70
2019-02-14T04:15:23.430Z,8.70
2019-02-14T04:17:51.466Z,8.60
2019-02-14T04:20:19.584Z,8.60
2019-02-14T04:22:47.774Z,8.60
2019-02-14T04:25:15.744Z,8.60
2019-02-14T04:27:43.778Z,8.60
2019-02-14T04:30:12.555Z,8.60
2019-02-14T04:32:40.540Z,8.60
2019-02-14T04:35:08.611Z,8.60
2019-02-14T04:37:36.603Z,8.50
2019-02-14T04:40:05.682Z,8.50
2019-02-14T04:42:33.695Z,8.50
2019-02-14T04:45:01.778Z,8.50
2019-02-14T04:47:29.782Z,8.50
2019-02-14T04:49:57.845Z,8.40
2019-02-14T04:52:25.863Z,8.50
2019-02-14T04:54:53.911Z,8.50
2019-02-14T04:57:22.424Z,8.50
2019-02-14T04:59:50.355Z,8.50
2019-02-14T05:02:18.474Z,8.50
2019-02-14T05:04:46.502Z,8.50
2019-02-14T05:07:14.527Z,8.40
2019-02-14T05:09:42.815Z,8.40
2019-02-14T05:12:11.014Z,8.30
2019-02-14T05:14:39.086Z,8.30
2019-02-14T05:17:07.098Z,8.40
2019-02-14T05:19:35.052Z,8.30
2019-02-14T05:22:03.159Z,8.10
2019-02-14T05:24:31.310Z,8.10
2019-02-14T05:27:00.927Z,8.20
2019-02-14T05:29:29.034Z,8.10
2019-02-14T05:31:57.083Z,8.10
2019-02-14T05:34:25.148Z,8.10
2019-02-14T05:36:55.211Z,8.00
2019-02-14T05:39:22.914Z,8.00
2019-02-14T05:41:51.134Z,7.90
2019-02-14T05:44:19.049Z,7.90
2019-02-14T05:46:47.121Z,7.90
2019-02-14T05:49:15.234Z,7.90
2019-02-14T05:51:43.249Z,8.00
2019-02-14T05:54:11.319Z,8.00
2019-02-14T05:56:39.354Z,8.00
2019-02-14T05:59:07.316Z,8.00
2019-02-14T06:01:35.663Z,7.80
2019-02-14T06:04:04.098Z,7.90
2019-02-14T06:06:32.075Z,7.90
2019-02-14T06:09:00.034Z,7.90
2019-02-14T06:11:28.134Z,7.90
2019-02-14T06:13:56.216Z,7.80
2019-02-14T06:16:24.750Z,7.80
2019-02-14T06:18:53.204Z,7.80
2019-02-14T06:21:21.322Z,7.80
2019-02-14T06:23:49.435Z,7.70
2019-02-14T06:26:17.483Z,7.70
2019-02-14T06:28:46.508Z,7.60
2019-02-14T06:31:14.458Z,7.70
2019-02-14T06:33:44.285Z,7.60
2019-02-14T06:36:12.447Z,7.60
2019-02-14T06:38:40.764Z,7.60
2019-02-14T06:41:08.800Z,7.50
2019-02-14T06:43:36.793Z,7.50
2019-02-14T06:46:04.718Z,7.50
2019-02-14T06:48:32.865Z,7.50
2019-02-14T06:51:00.979Z,7.50
2019-02-14T06:53:28.936Z,7.50
2019-02-14T06:55:57.006Z,7.50
2019-02-14T06:58:25.087Z,7.40
2019-02-14T07:00:54.042Z,7.40
2019-02-14T07:03:22.426Z,7.40
2019-02-14T07:05:50.501Z,7.40
2019-02-14T07:08:18.555Z,7.40
2019-02-14T07:10:46.573Z,7.40
2019-02-14T07:13:14.950Z,7.40
2019-02-14T07:15:43.027Z,7.40
2019-02-14T07:18:11.128Z,7.40
2019-02-14T07:20:39.167Z,7.30
2019-02-14T07:23:07.175Z,7.30
2019-02-14T07:25:35.231Z,7.40
2019-02-14T07:28:03.179Z,7.30
2019-02-14T07:30:31.170Z,7.40
2019-02-14T07:32:59.367Z,7.30
2019-02-14T07:35:27.627Z,7.40
2019-02-14T07:37:55.690Z,7.40
2019-02-14T07:40:23.940Z,7.30
2019-02-14T07:42:52.380Z,7.30
2019-02-14T07:45:20.474Z,7.30
2019-02-14T07:47:48.436Z,7.30
2019-02-14T07:50:16.881Z,7.30
2019-02-14T07:52:45.008Z,7.40
2019-02-14T07:55:13.220Z,7.30
2019-02-14T07:57:41.410Z,7.30
2019-02-14T08:00:11.475Z,7.30
2019-02-14T08:02:39.587Z,7.40
2019-02-14T08:05:07.751Z,7.50
2019-02-14T08:07:36.318Z,7.60
2019-02-14T08:10:05.123Z,7.70
2019-02-14T08:12:33.079Z,7.80
2019-02-14T08:15:01.038Z,7.90
2019-02-14T08:17:29.040Z,8.10
2019-02-14T08:19:57.043Z,8.10
2019-02-14T08:22:25.564Z,8.20
2019-02-14T08:24:53.478Z,8.30
2019-02-14T08:27:21.771Z,8.40
2019-02-14T08:29:51.678Z,8.50
2019-02-14T08:32:19.523Z,8.60
2019-02-14T08:34:47.526Z,8.70
2019-02-14T08:37:15.987Z,8.80
2019-02-14T08:39:44.075Z,8.90
2019-02-14T08:42:12.111Z,8.90
2019-02-14T08:44:40.115Z,9.00
2019-02-14T08:47:08.243Z,9.10
2019-02-14T08:49:36.227Z,9.20
2019-02-14T08:52:04.331Z,9.30
2019-02-14T08:54:32.297Z,9.40
2019-02-14T08:57:02.139Z,9.40
2019-02-14T08:59:30.155Z,9.50
2019-02-14T09:01:58.175Z,9.50
2019-02-14T09:04:26.196Z,9.60
2019-02-14T09:06:54.259Z,9.70
2019-02-14T09:09:22.277Z,9.80
2019-02-14T09:11:50.278Z,9.90
2019-02-14T09:14:21.101Z,9.90
2019-02-14T09:16:49.175Z,10.00
2019-02-14T09:19:17.116Z,10.10
2019-02-14T09:21:45.167Z,10.20
2019-02-14T09:24:13.630Z,10.30
2019-02-14T09:26:41.623Z,10.40
2019-02-14T09:29:09.643Z,10.60
2019-02-14T09:31:37.911Z,10.70
2019-02-14T09:34:05.989Z,10.80
2019-02-14T09:36:34.452Z,10.90
2019-02-14T09:39:03.545Z,11.00
2019-02-14T09:41:31.677Z,11.10
2019-02-14T09:43:59.933Z,11.30
2019-02-14T09:46:28.122Z,11.40
2019-02-14T09:48:56.152Z,11.50
2019-02-14T09:51:24.202Z,11.60
2019-02-14T09:53:52.214Z,11.70
2019-02-14T09:56:20.216Z,11.90
2019-02-14T09:58:48.244Z,12.00
2019-02-14T10:01:16.334Z,12.10
2019-02-14T10:03:44.487Z,12.30
2019-02-14T10:06:12.720Z,12.40
2019-02-14T10:08:40.930Z,12.50
2019-02-14T10:11:08.971Z,12.70
2019-02-14T10:13:37.018Z,12.90
2019-02-14T10:16:04.952Z,12.90
2019-02-14T10:18:32.915Z,13.10
2019-02-14T10:21:00.975Z,13.20
2019-02-14T10:23:29.027Z,13.30
2019-02-14T10:25:57.302Z,13.50
2019-02-14T10:28:25.322Z,13.60
2019-02-14T10:30:53.338Z,13.70
2019-02-14T10:33:21.350Z,14.00
2019-02-14T10:35:49.367Z,14.10
2019-02-14T10:38:22.368Z,14.20
2019-02-14T10:40:47.561Z,14.30
2019-02-14T10:43:15.779Z,14.40
2019-02-14T10:45:43.815Z,14.50
2019-02-14T10:48:11.843Z,14.60
2019-02-14T10:50:39.856Z,14.70
2019-02-14T10:53:07.809Z,14.90
2019-02-14T10:55:35.830Z,15.10
2019-02-14T10:58:03.936Z,15.30
2019-02-14T11:00:32.179Z,15.40
2019-02-14T11:03:00.292Z,15.50
2019-02-14T11:05:28.256Z,15.60
2019-02-14T11:07:56.380Z,15.80
2019-02-14T11:10:24.566Z,16.00
2019-02-14T11:12:52.503Z,16.10
2019-02-14T11:15:26.298Z,16.20
2019-02-14T11:17:54.431Z,16.40
2019-02-14T11:20:22.335Z,16.50
2019-02-14T11:22:50.431Z,16.60
2019-02-14T11:25:21.470Z,16.70
2019-02-14T11:27:49.651Z,16.90
2019-02-14T11:30:17.713Z,17.00
2019-02-14T11:32:45.671Z,17.10
2019-02-14T11:35:13.696Z,17.20
2019-02-14T11:37:42.230Z,17.30
2019-02-14T11:40:10.895Z,17.50
2019-02-14T11:42:38.981Z,17.60
2019-02-14T11:45:09.363Z,17.80
2019-02-14T11:47:37.922Z,18.00
2019-02-14T11:50:06.931Z,18.10
2019-02-14T11:52:35.014Z,18.30
2019-02-14T11:55:03.116Z,18.50
2019-02-14T11:57:31.096Z,18.70
2019-02-14T11:59:59.071Z,18.80
2019-02-14T12:02:27.065Z,18.90
2019-02-14T12:04:55.191Z,19.00
2019-02-14T12:07:23.110Z,19.00
2019-02-14T12:09:51.104Z,19.30
2019-02-14T12:12:20.756Z,19.30
2019-02-14T12:15:13.626Z,19.50
2019-02-14T12:17:41.407Z,19.60
2019-02-14T12:20:12.376Z,19.80
2019-02-14T12:22:46.301Z,19.90
2019-02-14T12:25:10.540Z,19.90
2019-02-14T12:27:38.619Z,19.90
2019-02-14T12:30:09.014Z,20.00
2019-02-14T12:32:37.127Z,20.10
2019-02-14T12:35:05.254Z,20.10
2019-02-14T12:37:45.769Z,20.20
2019-02-14T12:40:14.323Z,20.40
2019-02-14T12:42:42.349Z,20.60
2019-02-14T12:45:20.207Z,20.70
2019-02-14T12:47:41.687Z,20.80
2019-02-14T12:50:09.839Z,20.90
2019-02-14T12:52:37.832Z,20.90
2019-02-14T12:55:06.144Z,21.00
2019-02-14T12:57:34.211Z,21.10
2019-02-14T13:00:02.196Z,21.20
2019-02-14T13:02:30.206Z,21.20
2019-02-14T13:04:58.285Z,21.30
2019-02-14T13:07:26.338Z,21.40
2019-02-14T13:09:54.560Z,21.40
2019-02-14T13:12:22.853Z,21.50
2019-02-14T13:15:16.865Z,21.60
2019-02-14T13:17:44.519Z,21.60
2019-02-14T13:20:12.847Z,21.70
2019-02-14T13:22:40.814Z,21.70
2019-02-14T13:25:09.570Z,21.70
2019-02-14T13:27:37.703Z,21.80
2019-02-14T13:30:07.268Z,21.80
2019-02-14T13:32:35.250Z,21.80
2019-02-14T13:35:03.456Z,21.90
2019-02-14T13:37:31.488Z,21.90
2019-02-14T13:39:59.506Z,21.90
2019-02-14T13:42:27.583Z,21.90
2019-02-14T13:44:55.755Z,21.90
2019-02-14T13:47:23.836Z,22.00
2019-02-14T13:49:51.824Z,22.20
2019-02-14T13:52:19.986Z,22.40
2019-02-14T13:54:48.032Z,22.40
2019-02-14T13:57:16.187Z,22.40
2019-02-14T13:59:44.275Z,22.30
2019-02-14T14:02:12.379Z,22.50
2019-02-14T14:04:40.446Z,22.60
2019-02-14T14:07:08.447Z,22.60
2019-02-14T14:09:38.705Z,22.60
2019-02-14T14:12:06.527Z,22.60
2019-02-14T14:15:00.730Z,22.70
2019-02-14T14:17:28.575Z,22.70
2019-02-14T14:19:56.554Z,22.80
2019-02-14T14:22:24.516Z,22.70
2019-02-14T14:24:52.539Z,22.70
2019-02-14T14:27:20.671Z,22.80
2019-02-14T14:29:48.702Z,22.70
2019-02-14T14:32:16.780Z,22.70
2019-02-14T14:34:45.268Z,22.70
2019-02-14T14:37:13.361Z,22.80
2019-02-14T14:39:47.657Z,22.90
2019-02-14T14:42:30.615Z,22.80
2019-02-14T14:44:58.799Z,22.70
2019-02-14T14:47:26.883Z,22.70
2019-02-14T14:49:54.871Z,22.70
2019-02-14T14:52:22.936Z,22.80
2019-02-14T14:54:50.928Z,22.80
2019-02-14T14:57:18.882Z,22.90
2019-02-14T14:59:47.327Z,22.80
2019-02-14T15:02:15.763Z,22.80
2019-02-14T15:04:43.846Z,22.80
2019-02-14T15:07:11.870Z,22.80
2019-02-14T15:09:39.889Z,22.80
2019-02-14T15:12:08.312Z,22.80
2019-02-14T15:15:14.619Z,22.90
2019-02-14T15:17:41.607Z,22.80
2019-02-14T15:20:09.644Z,22.80
2019-02-14T15:22:37.648Z,22.70
2019-02-14T15:25:05.831Z,22.70
2019-02-14T15:27:34.044Z,22.70
2019-02-14T15:30:02.069Z,22.70
2019-02-14T15:32:30.200Z,22.60
2019-02-14T15:34:58.249Z,22.60
2019-02-14T15:37:34.637Z,22.50
2019-02-14T15:40:09.403Z,22.50
2019-02-14T15:42:32.673Z,22.40
2019-02-14T15:45:00.679Z,22.20
2019-02-14T15:47:30.813Z,22.20
2019-02-14T15:49:58.505Z,22.20
2019-02-14T15:52:27.448Z,22.10
2019-02-14T15:54:58.134Z,22.00
2019-02-14T15:57:26.243Z,22.00
2019-02-14T15:59:54.260Z,21.90
2019-02-14T16:02:22.293Z,21.80
2019-02-14T16:04:50.758Z,21.70
2019-02-14T16:07:20.182Z,21.50
2019-02-14T16:09:48.831Z,21.10
2019-02-14T16:12:17.454Z,20.90
2019-02-14T16:15:16.907Z,20.70
2019-02-14T16:17:44.402Z,20.50
2019-02-14T16:20:12.959Z,20.30
2019-02-14T16:22:42.387Z,20.30
2019-02-14T16:25:10.950Z,20.20
2019-02-14T16:27:38.935Z,19.90
2019-02-14T16:30:09.270Z,19.80
2019-02-14T16:32:37.151Z,19.60
2019-02-14T16:35:05.484Z,19.60
2019-02-14T16:37:33.445Z,19.40
2019-02-14T16:40:01.459Z,19.30
2019-02-14T16:42:29.835Z,19.20
2019-02-14T16:44:58.846Z,19.10
2019-02-14T16:47:26.925Z,18.90
2019-02-14T16:49:54.998Z,18.80
2019-02-14T16:52:23.090Z,18.60
2019-02-14T16:54:51.153Z,18.40
2019-02-14T16:57:19.212Z,18.30
2019-02-14T16:59:47.380Z,18.20
2019-02-14T17:02:15.543Z,18.10
2019-02-14T17:04:43.765Z,18.00
2019-02-14T17:07:11.919Z,18.10
2019-02-14T17:09:39.919Z,18.00
2019-02-14T17:12:07.952Z,18.00
2019-02-14T17:15:00.460Z,18.00
2019-02-14T17:17:28.361Z,17.90
2019-02-14T17:19:56.473Z,17.80
2019-02-14T17:22:24.654Z,17.70
2019-02-14T17:24:52.671Z,17.60
2019-02-14T17:27:20.747Z,17.60
2019-02-14T17:29:48.813Z,17.50
2019-02-14T17:32:16.898Z,17.50
2019-02-14T17:34:45.360Z,17.40
2019-02-14T17:37:13.515Z,17.30
2019-02-14T17:39:41.920Z,17.10
2019-02-14T17:42:10.113Z,17.10
2019-02-14T17:44:38.797Z,16.90
2019-02-14T17:47:07.421Z,16.90
2019-02-14T17:49:35.989Z,16.90
2019-02-14T17:52:05.577Z,16.90
2019-02-14T17:54:34.421Z,16.90
2019-02-14T17:57:04.659Z,16.90
2019-02-14T17:59:33.442Z,16.90
2019-02-14T18:02:03.956Z,16.80
2019-02-14T18:04:32.857Z,16.70
2019-02-14T18:07:03.218Z,16.60
2019-02-14T18:09:31.915Z,16.60
2019-02-14T18:12:02.253Z,16.60
2019-02-14T18:14:53.171Z,16.50
2019-02-14T18:17:22.094Z,16.40
2019-02-14T18:19:50.878Z,16.30
2019-02-14T18:22:19.715Z,16.20
2019-02-14T18:24:48.515Z,16.10
2019-02-14T18:27:17.366Z,16.10
2019-02-14T18:29:46.201Z,16.00
2019-02-14T18:32:15.025Z,15.90
2019-02-14T18:34:43.822Z,15.90
2019-02-14T18:37:12.682Z,16.00
2019-02-14T18:39:41.425Z,16.00
2019-02-14T18:42:10.332Z,15.90
2019-02-14T18:44:39.106Z,15.90
2019-02-14T18:47:07.881Z,15.90
2019-02-14T18:49:36.289Z,15.80
2019-02-14T18:52:04.950Z,15.80
2019-02-14T18:54:33.650Z,15.70
2019-02-14T18:57:04.102Z,15.60
2019-02-14T18:59:32.910Z,15.70
2019-02-14T19:02:03.383Z,15.70
2019-02-14T19:04:32.232Z,15.70
2019-02-14T19:07:02.613Z,15.70
2019-02-14T19:09:31.507Z,15.60
2019-02-14T19:12:00.365Z,15.40
2019-02-14T19:14:41.176Z,15.30
2019-02-14T19:17:10.048Z,15.30
2019-02-14T19:19:38.911Z,15.40
2019-02-14T19:22:07.737Z,15.40
2019-02-14T19:24:36.538Z,15.40
2019-02-14T19:27:05.647Z,15.40
2019-02-14T19:29:36.296Z,15.30
2019-02-14T19:32:05.496Z,15.20
2019-02-14T19:34:34.379Z,15.10
2019-02-14T19:37:04.988Z,15.10
2019-02-14T19:39:33.846Z,15.00
2019-02-14T19:42:06.879Z,15.00
2019-02-14T19:44:35.688Z,14.90
2019-02-14T19:47:05.355Z,14.90
2019-02-14T19:49:34.199Z,15.00
2019-02-14T19:52:04.591Z,14.90
2019-02-14T19:54:33.347Z,14.80
2019-02-14T19:57:08.775Z,14.80
2019-02-14T19:59:57.996Z,14.70
2019-02-14T20:02:53.071Z,14.60
2019-02-14T20:09:03.347Z,14.60
2019-02-14T20:12:08.179Z,14.50
2019-02-14T20:15:43.914Z,14.50
2019-02-14T20:18:51.401Z,14.40
2019-02-14T20:21:18.919Z,14.40
2019-02-14T20:24:39.550Z,14.30
2019-02-14T20:28:25.023Z,14.30
2019-02-14T20:30:51.232Z,14.30
2019-02-14T20:33:20.132Z,14.40
2019-02-14T20:35:49.056Z,14.40
2019-02-14T20:38:17.718Z,14.30
2019-02-14T20:40:46.269Z,14.30
2019-02-14T20:43:15.011Z,14.20
2019-02-14T20:45:43.470Z,14.00
2019-02-14T20:48:12.027Z,14.00
2019-02-14T20:50:40.435Z,14.00
2019-02-14T20:53:08.491Z,14.00
2019-02-14T20:55:37.062Z,13.90
2019-02-14T20:58:05.512Z,13.90
2019-02-14T21:00:36.050Z,14.00
2019-02-14T21:03:04.410Z,14.00
2019-02-14T21:05:32.749Z,13.90
2019-02-14T21:08:00.884Z,13.90
2019-02-14T21:10:29.195Z,13.90
2019-02-14T21:12:57.683Z,13.90
2019-02-14T21:16:03.502Z,13.90
2019-02-14T21:18:30.234Z,13.90
2019-02-14T21:20:59.172Z,13.80
2019-02-14T21:23:27.243Z,13.80
2019-02-14T21:26:27.310Z,13.70
2019-02-14T21:28:54.791Z,13.60
2019-02-14T21:31:22.765Z,13.40
2019-02-14T21:33:53.698Z,13.50
2019-02-14T21:36:21.894Z,13.50
2019-02-14T21:38:49.862Z,13.40
2019-02-14T21:41:18.218Z,13.40
2019-02-14T21:43:46.198Z,13.20
2019-02-14T21:46:14.149Z,13.20
2019-02-14T21:48:42.331Z,13.20
2019-02-14T21:51:10.383Z,13.30
2019-02-14T21:53:38.426Z,13.20
2019-02-14T21:56:06.462Z,13.20
2019-02-14T21:58:34.375Z,13.10
2019-02-14T22:01:02.446Z,13.00
2019-02-14T22:03:30.526Z,13.00
2019-02-14T22:05:58.523Z,13.10
2019-02-14T22:08:26.931Z,13.00
2019-02-14T22:10:54.950Z,13.00
2019-02-14T22:13:24.738Z,13.00
2019-02-14T22:16:37.054Z,13.10
2019-02-14T22:19:03.143Z,13.10
2019-02-14T22:21:31.159Z,13.10
2019-02-14T22:23:59.271Z,13.00
2019-02-14T22:26:27.111Z,12.80
2019-02-14T22:28:55.039Z,12.90
2019-02-14T22:31:23.024Z,12.80
2019-02-14T22:33:51.043Z,12.80
2019-02-14T22:36:19.003Z,12.80
2019-02-14T22:38:46.904Z,12.70
2019-02-14T22:41:14.840Z,12.70
2019-02-14T22:43:42.802Z,12.70
2019-02-14T22:46:10.781Z,12.60
2019-02-14T22:48:38.742Z,12.60
2019-02-14T22:51:06.764Z,12.70
2019-02-14T22:53:34.746Z,12.70
2019-02-14T22:56:02.734Z,12.70
2019-02-14T22:58:30.778Z,12.60
2019-02-14T23:00:59.843Z,12.60
2019-02-14T23:03:27.777Z,12.70
2019-02-14T23:05:55.834Z,12.60
2019-02-14T23:08:23.852Z,12.60
2019-02-14T23:10:52.054Z,12.60
2019-02-14T23:13:19.979Z,12.60
2019-02-14T23:15:48.114Z,12.40
2019-02-14T23:18:16.219Z,12.30
2019-02-14T23:20:44.357Z,12.20
2019-02-14T23:23:12.323Z,12.20
2019-02-14T23:25:40.746Z,12.20
2019-02-14T23:28:08.713Z,12.20
2019-02-14T23:30:36.590Z,12.20
2019-02-14T23:33:04.545Z,12.20
2019-02-14T23:35:32.457Z,12.20
2019-02-14T23:38:00.354Z,12.10
2019-02-14T23:40:28.266Z,12.10
2019-02-14T23:43:04.124Z,12.10
2019-02-14T23:45:26.374Z,12.10
2019-02-14T23:47:54.364Z,12.20
2019-02-14T23:50:22.473Z,12.10
2019-02-14T23:52:50.391Z,12.00
2019-02-14T23:55:18.412Z,12.00
2019-02-14T23:57:46.496Z,12.00
